ダブリン の空港の天気 - METARとTAF

ダブリン空港 ( EIDW / DUB ) - アイルランド ダブリン
飛行場実況気象(Metar)
観測時間02/05 20:30 IST (02/05 20:30 UTC)
風向・風速不定 2m/s
視程10km以上
天気現象
少しの雲 雲底高度 430m
全天の8割程度の雲 雲底高度 7620m
気温4℃
湿度75%
気圧1043hPa
METAREIDW 052030Z VRB03KT 9999 FEW014 BKN250 04/M00 Q1043 NOSIG
過去の天気等 Google飛行場航空写真 Wunderground天気予報

過去48時間のMETAR

飛行場予報(TAF)
発表時間: 2/05 17:00 IST (2/05 17:00 UTC)
予報対象時間: 5日18時 IST ~ 6日18時 IST
風向・風速南西 4m/s
視程10km以上
全天の4割程度の雲 雲底高度 610m
5日20時 IST ~ 5日22時 IST に徐々に
風向・風速不定 2m/s
6日6時 IST ~ 6日8時 IST に徐々に
風向・風速南南西 5m/s
TAF EIDW 051700Z 0518/0618 23007KT 9999 SCT020
BECMG 0520/0522 VRB03KT
BECMG 0606/0608 21010KT